Time;durP1;ratioP1;P1;durP2;ratioP2;P2;SDS_P1;SDS_P2;PMS_P1;PMS_P2;Temp;Humidity;BMP_temperature;BMP_pressure;BME280_temperature;BME280_humidity;BME280_pressure;Samples;Min_cycle;Max_cycle;Signal;HPM_P1;HPM_P2
2023/03/29 00:02:04;;;;;;;2.50;1.80;;;;;;;6.00;100.00;98484.34;5075748;28;20207;-77
2023/03/29 00:04:30;;;;;;;2.40;1.73;;;;;;;5.95;100.00;98486.69;5075686;28;20323;-77
2023/03/29 00:06:56;;;;;;;1.83;1.53;;;;;;;5.92;100.00;98489.72;5076002;28;20598;-77
2023/03/29 00:09:25;;;;;;;2.13;1.90;;;;;;;5.90;100.00;98495.16;5075684;28;20204;-77
2023/03/29 00:11:52;;;;;;;2.50;1.80;;;;;;;5.91;100.00;98491.53;5075575;28;20212;-77
2023/03/29 00:14:18;;;;;;;2.23;2.00;;;;;;;5.95;100.00;98476.13;5075581;28;20203;-77
2023/03/29 00:16:45;;;;;;;2.00;1.80;;;;;;;5.95;100.00;98482.25;5075486;28;20200;-77
2023/03/29 00:19:11;;;;;;;2.00;1.80;;;;;;;5.93;100.00;98473.69;5075468;28;20212;-77
2023/03/29 00:21:38;;;;;;;2.00;1.90;;;;;;;5.96;100.00;98470.69;5075436;28;20207;-77
2023/03/29 00:24:04;;;;;;;2.07;1.97;;;;;;;5.97;100.00;98468.88;5074947;28;20228;-77
2023/03/29 00:26:31;;;;;;;2.67;2.00;;;;;;;6.02;100.00;98463.88;5074980;28;20215;-76
2023/03/29 00:28:57;;;;;;;2.20;2.00;;;;;;;6.00;100.00;98458.78;5074784;28;20676;-77
2023/03/29 00:31:23;;;;;;;1.83;1.70;;;;;;;6.01;100.00;98456.97;5075228;28;20578;-77
2023/03/29 00:33:50;;;;;;;4.13;1.80;;;;;;;5.99;100.00;98454.50;5074897;28;20236;-77
2023/03/29 00:36:16;;;;;;;2.93;2.00;;;;;;;6.06;100.00;98454.59;5075057;28;20201;-76
2023/03/29 00:38:43;;;;;;;2.37;1.73;;;;;;;6.05;100.00;98455.59;5074789;28;20701;-77
2023/03/29 00:41:10;;;;;;;3.23;1.70;;;;;;;6.12;100.00;98459.16;5075070;28;20204;-77
2023/03/29 00:43:54;;;;;;;4.37;2.10;;;;;;;6.09;100.00;98449.78;5074900;28;20225;-77
2023/03/29 00:46:21;;;;;;;3.30;1.77;;;;;;;6.21;100.00;98456.25;5074616;28;20252;-77
2023/03/29 00:48:48;;;;;;;3.53;1.70;;;;;;;6.13;100.00;98443.13;5074902;28;20223;-77
2023/03/29 00:51:18;;;;;;;1.80;1.70;;;;;;;6.09;100.00;98446.31;5074860;28;20224;-77
2023/03/29 00:53:50;;;;;;;1.97;1.53;;;;;;;6.05;100.00;98442.38;5074694;28;20235;-77
2023/03/29 00:56:35;;;;;;;4.47;2.00;;;;;;;6.06;100.00;98451.97;5057338;28;20192;-77
2023/03/29 00:59:09;;;;;;;2.17;1.90;;;;;;;6.06;100.00;98444.06;5057012;28;20642;-77
2023/03/29 01:02:00;;;;;;;3.20;1.87;;;;;;;6.03;100.00;98437.31;5074346;28;20189;-77
2023/03/29 01:04:32;;;;;;;2.00;1.87;;;;;;;6.05;100.00;98429.19;5065707;28;20220;-77
2023/03/29 01:07:02;;;;;;;2.10;1.80;;;;;;;6.02;100.00;98429.56;5074583;28;20196;-77
2023/03/29 01:09:33;;;;;;;4.00;1.90;;;;;;;6.00;100.00;98426.28;5074571;28;20211;-77
2023/03/29 01:12:04;;;;;;;2.87;1.97;;;;;;;6.02;100.00;98422.44;5074928;28;20189;-77
2023/03/29 01:14:38;;;;;;;2.63;1.93;;;;;;;6.05;100.00;98422.09;5074329;28;20193;-77
2023/03/29 01:17:06;;;;;;;3.10;1.90;;;;;;;6.03;100.00;98413.56;5074341;28;20185;-77
2023/03/29 01:19:39;;;;;;;1.90;1.80;;;;;;;6.01;100.00;98407.63;5074224;28;20212;-77
2023/03/29 01:22:38;;;;;;;1.70;1.60;;;;;;;5.99;100.00;98404.38;5073932;28;20225;-77
2023/03/29 01:25:36;;;;;;;2.40;1.90;;;;;;;5.99;100.00;98409.66;5040376;28;20224;-77
2023/03/29 01:28:08;;;;;;;2.43;1.73;;;;;;;5.99;100.00;98404.38;5056165;28;20196;-77
2023/03/29 01:30:44;;;;;;;5.37;1.80;;;;;;;6.06;100.00;98393.91;5074086;28;20199;-77
2023/03/29 01:33:38;;;;;;;2.37;1.80;;;;;;;5.97;100.00;98390.50;5055983;28;20232;-77
2023/03/29 01:36:15;;;;;;;2.13;1.70;;;;;;;6.00;100.00;98384.06;5067364;28;20682;-77
2023/03/29 01:38:53;;;;;;;3.50;1.80;;;;;;;6.00;100.00;98376.13;5073947;28;20211;-76
2023/03/29 01:41:19;;;;;;;3.63;1.80;;;;;;;5.95;100.00;98381.16;5073408;28;20189;-77
2023/03/29 01:43:55;;;;;;;3.80;2.17;;;;;;;5.98;100.00;98378.94;5073716;28;20232;-76
2023/03/29 01:46:30;;;;;;;2.23;1.90;;;;;;;5.94;100.00;98371.59;5073691;28;20571;-77
2023/03/29 01:49:10;;;;;;;2.30;2.10;;;;;;;5.90;100.00;98367.69;5073853;28;20206;-77
2023/03/29 01:51:44;;;;;;;2.77;2.30;;;;;;;5.90;100.00;98357.97;5073812;28;20227;-77
2023/03/29 01:54:37;;;;;;;2.10;1.90;;;;;;;5.90;100.00;98354.50;5073811;28;20599;-77
2023/03/29 01:57:06;;;;;;;2.40;2.00;;;;;;;5.89;100.00;98344.94;5070886;28;20210;-77
2023/03/29 01:59:38;;;;;;;2.63;2.20;;;;;;;5.85;100.00;98336.56;5073641;28;20246;-77
2023/03/29 02:02:11;;;;;;;4.53;1.93;;;;;;;5.82;100.00;98323.75;5074127;28;20228;-77
2023/03/29 02:04:46;;;;;;;2.17;1.90;;;;;;;5.79;100.00;98324.06;5056308;28;20196;-77
2023/03/29 02:07:15;;;;;;;1.90;1.80;;;;;;;5.79;100.00;98312.72;5056731;28;20291;-76
2023/03/29 02:09:43;;;;;;;2.40;2.13;;;;;;;5.80;100.00;98314.34;5074332;28;20214;-76
2023/03/29 02:12:11;;;;;;;2.67;2.07;;;;;;;5.83;100.00;98303.47;5073226;28;20711;-77
2023/03/29 02:14:37;;;;;;;2.13;1.93;;;;;;;5.86;100.00;98300.44;5073187;28;20211;-76
2023/03/29 02:17:22;;;;;;;3.00;2.00;;;;;;;5.85;100.00;98304.91;5073200;28;20211;-77
2023/03/29 02:19:53;;;;;;;2.93;2.07;;;;;;;5.75;100.00;98312.25;5073225;28;20643;-77
2023/03/29 02:22:26;;;;;;;2.13;1.80;;;;;;;5.80;100.00;98309.94;5074223;28;20231;-76
2023/03/29 02:24:57;;;;;;;3.23;2.00;;;;;;;5.81;100.00;98310.72;5073521;28;20577;-76
2023/03/29 02:27:26;;;;;;;2.03;1.87;;;;;;;5.81;100.00;98321.28;5073418;28;20193;-76
2023/03/29 02:29:53;;;;;;;2.40;1.97;;;;;;;5.82;100.00;98328.19;5073363;28;20212;-76
2023/03/29 02:32:44;;;;;;;2.67;2.20;;;;;;;5.78;100.00;98316.31;5073086;28;20601;-77
2023/03/29 02:35:15;;;;;;;3.03;2.00;;;;;;;5.83;100.00;98314.81;5073317;28;20196;-76
2023/03/29 02:37:48;;;;;;;1.40;1.30;;;;;;;5.84;100.00;98308.53;5073360;28;20189;-77
2023/03/29 02:40:15;;;;;;;2.10;1.90;;;;;;;5.88;100.00;98312.44;5073042;28;20189;-77
2023/03/29 02:42:45;;;;;;;2.00;1.77;;;;;;;5.82;100.00;98307.09;5073415;28;20233;-77
2023/03/29 02:45:15;;;;;;;1.90;1.67;;;;;;;5.82;100.00;98309.72;5072877;28;20302;-76
2023/03/29 02:47:46;;;;;;;2.57;1.80;;;;;;;5.77;100.00;98298.88;5055449;28;20208;-77
2023/03/29 02:50:12;;;;;;;2.37;1.93;;;;;;;5.73;100.00;98279.13;5073176;28;20185;-77
2023/03/29 02:52:44;;;;;;;2.03;1.83;;;;;;;5.73;100.00;98279.13;5073747;28;20225;-77
2023/03/29 02:55:16;;;;;;;2.93;1.97;;;;;;;5.70;100.00;98263.69;5076905;28;20192;-77
2023/03/29 02:57:43;;;;;;;2.20;1.90;;;;;;;5.64;100.00;98267.03;5076960;28;20211;-77
2023/03/29 03:00:13;;;;;;;3.20;2.07;;;;;;;5.58;100.00;98262.50;5076614;28;20668;-77
2023/03/29 03:02:40;;;;;;;2.37;1.90;;;;;;;5.60;100.00;98256.03;5059038;28;20738;-77
2023/03/29 03:05:08;;;;;;;2.10;1.90;;;;;;;5.71;100.00;98252.13;5076529;28;20322;-77
2023/03/29 03:07:34;;;;;;;2.57;2.00;;;;;;;5.71;100.00;98242.41;5076688;28;20230;-77
2023/03/29 03:10:02;;;;;;;4.13;1.90;;;;;;;5.66;100.00;98238.69;5076687;28;20207;-77
2023/03/29 03:12:29;;;;;;;2.17;1.77;;;;;;;5.69;100.00;98241.75;5076247;28;20225;-77
2023/03/29 03:14:55;;;;;;;3.20;2.00;;;;;;;5.61;100.00;98252.41;5076606;28;20301;-77
2023/03/29 03:17:22;;;;;;;2.10;1.90;;;;;;;5.62;100.00;98246.16;5076839;28;20208;-77
2023/03/29 03:19:48;;;;;;;2.70;1.70;;;;;;;5.71;100.00;98260.88;5076122;28;20717;-77
2023/03/29 03:22:14;;;;;;;2.27;1.87;;;;;;;5.75;100.00;98256.03;5076276;28;20232;-77
2023/03/29 03:24:41;;;;;;;2.63;2.07;;;;;;;5.79;100.00;98255.47;5076329;28;20611;-77
2023/03/29 03:27:07;;;;;;;2.40;1.70;;;;;;;5.85;100.00;98259.25;5076319;28;20211;-77
2023/03/29 03:29:34;;;;;;;2.10;1.90;;;;;;;5.91;100.00;98258.50;5076263;28;20228;-77
2023/03/29 03:32:01;;;;;;;1.77;1.67;;;;;;;6.05;100.00;98255.00;5075678;28;20864;-77
2023/03/29 03:34:28;;;;;;;3.37;1.60;;;;;;;6.17;100.00;98250.88;5076116;28;20552;-77
2023/03/29 03:36:56;;;;;;;2.20;1.73;;;;;;;6.26;100.00;98250.59;5076040;28;20209;-77
2023/03/29 03:39:22;;;;;;;2.20;1.83;;;;;;;6.32;100.00;98241.91;5075927;28;20258;-77
2023/03/29 03:41:49;;;;;;;1.70;1.60;;;;;;;6.33;100.00;98237.47;5075849;28;20201;-77
2023/03/29 03:44:16;;;;;;;2.77;1.50;;;;;;;6.32;100.00;98235.81;5076042;28;20208;-77
2023/03/29 03:46:42;;;;;;;1.70;1.60;;;;;;;6.30;100.00;98241.31;5075782;28;20235;-77
2023/03/29 03:49:08;;;;;;;1.70;1.60;;;;;;;6.29;100.00;98244.94;5074799;28;20211;-77
2023/03/29 03:51:35;;;;;;;2.97;1.70;;;;;;;6.32;100.00;98243.72;5075861;28;20565;-77
2023/03/29 03:54:01;;;;;;;2.63;1.60;;;;;;;6.37;100.00;98243.97;5075790;28;20229;-77
2023/03/29 03:56:28;;;;;;;3.40;1.30;;;;;;;6.37;100.00;98243.97;5075951;28;20207;-77
2023/03/29 03:58:55;;;;;;;1.53;1.40;;;;;;;6.38;100.00;98250.94;5075475;28;20211;-77
2023/03/29 04:01:22;;;;;;;2.63;1.57;;;;;;;6.40;100.00;98246.25;5075296;28;20208;-77
2023/03/29 04:03:49;;;;;;;1.83;1.33;;;;;;;6.40;100.00;98246.25;5074368;28;20252;-77
2023/03/29 04:06:16;;;;;;;1.60;1.50;;;;;;;6.41;100.00;98242.59;5074888;28;20320;-77
2023/03/29 04:08:42;;;;;;;2.53;1.40;;;;;;;6.41;100.00;98250.53;5075081;28;20204;-77
2023/03/29 04:11:09;;;;;;;1.43;1.30;;;;;;;6.39;100.00;98255.19;5075413;28;20208;-77
2023/03/29 04:13:35;;;;;;;1.30;1.20;;;;;;;6.43;100.00;98262.53;5075546;28;20224;-77
2023/03/29 04:16:02;;;;;;;2.90;1.30;;;;;;;6.48;100.00;98262.00;5075338;28;20250;-77
2023/03/29 04:18:28;;;;;;;2.87;1.33;;;;;;;6.51;100.00;98256.34;5075329;28;20200;-77
2023/03/29 04:20:55;;;;;;;1.50;1.23;;;;;;;6.67;97.46;98256.06;5075030;28;20208;-77
2023/03/29 04:23:21;;;;;;;1.63;1.20;;;;;;;6.80;93.16;98256.19;5074700;28;20240;-78
2023/03/29 04:25:48;;;;;;;4.00;1.70;;;;;;;6.84;92.82;98252.16;5074890;28;20250;-77
2023/03/29 04:28:14;;;;;;;2.73;1.30;;;;;;;6.88;91.85;98250.78;5074946;28;20210;-77
2023/03/29 04:30:40;;;;;;;1.77;1.27;;;;;;;6.95;93.31;98254.28;5074665;28;20219;-78
2023/03/29 04:33:07;;;;;;;1.50;1.40;;;;;;;6.98;88.83;98257.38;5074633;28;20297;-77
2023/03/29 04:35:33;;;;;;;1.53;1.43;;;;;;;7.05;87.90;98254.75;5074989;28;20201;-78
2023/03/29 04:38:00;;;;;;;2.90;1.70;;;;;;;6.99;89.30;98256.38;5074837;28;20205;-77
2023/03/29 04:40:27;;;;;;;2.87;1.30;;;;;;;7.04;88.89;98255.78;5075059;28;20226;-77
2023/03/29 04:42:54;;;;;;;1.53;1.33;;;;;;;6.99;89.42;98259.00;5074288;28;20231;-78
2023/03/29 04:45:20;;;;;;;3.33;1.33;;;;;;;7.02;90.52;98255.16;5074225;28;20200;-78
2023/03/29 04:47:46;;;;;;;2.47;1.27;;;;;;;7.08;88.37;98259.69;5074690;28;20200;-77
2023/03/29 04:50:13;;;;;;;5.60;1.23;;;;;;;7.05;90.22;98260.03;5074581;28;20205;-78
2023/03/29 04:52:40;;;;;;;2.83;1.30;;;;;;;7.09;88.13;98253.38;5074527;28;20248;-78
2023/03/29 04:55:08;;;;;;;2.23;1.20;;;;;;;7.07;89.75;98255.41;5074271;28;20200;-78
2023/03/29 04:57:34;;;;;;;1.77;1.20;;;;;;;7.09;89.53;98256.84;5074359;28;20211;-78
2023/03/29 05:00:00;;;;;;;3.13;1.10;;;;;;;7.11;87.94;98254.81;5074647;28;20207;-78
2023/03/29 05:02:29;;;;;;;3.23;1.20;;;;;;;7.17;87.67;98247.94;5073825;28;20236;-78
2023/03/29 05:04:56;;;;;;;1.40;1.30;;;;;;;7.25;85.17;98256.56;5074120;28;20235;-78
2023/03/29 05:07:22;;;;;;;1.43;1.00;;;;;;;7.19;87.16;98254.69;5074018;28;20232;-77
2023/03/29 05:09:48;;;;;;;4.20;1.40;;;;;;;7.20;86.84;98255.50;5074027;28;20234;-79
2023/03/29 05:12:15;;;;;;;2.57;1.00;;;;;;;7.29;84.34;98254.34;5074275;28;20224;-77
2023/03/29 05:14:41;;;;;;;1.40;1.20;;;;;;;7.42;82.91;98249.16;5073723;28;20671;-77
2023/03/29 05:17:07;;;;;;;2.27;1.30;;;;;;;7.35;85.85;98256.22;5073052;28;20223;-77
2023/03/29 05:19:35;;;;;;;1.47;1.20;;;;;;;7.31;86.04;98249.66;5073960;28;20205;-77
2023/03/29 05:22:01;;;;;;;1.73;1.40;;;;;;;7.31;86.79;98254.97;5074080;28;20208;-77
2023/03/29 05:24:28;;;;;;;2.27;1.40;;;;;;;7.40;83.88;98259.91;5073617;28;20207;-77
2023/03/29 05:26:55;;;;;;;2.73;1.20;;;;;;;7.41;83.69;98256.25;5073416;28;20311;-77
2023/03/29 05:29:22;;;;;;;1.53;1.00;;;;;;;7.45;82.75;98254.03;5073685;28;20208;-78
2023/03/29 05:31:49;;;;;;;2.30;1.00;;;;;;;7.45;83.73;98257.50;5073114;28;20208;-78
2023/03/29 05:34:15;;;;;;;2.57;1.10;;;;;;;7.53;83.18;98256.53;5073301;28;20216;-78
2023/03/29 05:36:42;;;;;;;3.57;1.40;;;;;;;7.56;82.85;98256.94;5072671;28;20200;-78
2023/03/29 05:39:09;;;;;;;1.30;1.20;;;;;;;7.65;82.09;98260.28;5073119;28;20216;-77
2023/03/29 05:41:36;;;;;;;1.67;1.20;;;;;;;7.68;81.19;98254.56;5073463;28;20254;-77
2023/03/29 05:44:02;;;;;;;3.17;1.23;;;;;;;7.75;79.83;98255.44;5073063;28;20227;-77
2023/03/29 05:46:28;;;;;;;2.00;1.10;;;;;;;7.76;80.16;98243.81;5072627;28;20224;-78
2023/03/29 05:48:55;;;;;;;2.37;1.10;;;;;;;7.82;79.25;98257.09;5073049;28;20208;-77
2023/03/29 05:51:23;;;;;;;4.23;2.97;;;;;;;7.81;80.94;98254.63;5073226;28;20211;-77
2023/03/29 05:53:50;;;;;;;1.80;1.20;;;;;;;7.81;79.80;98257.28;5072916;28;20307;-77
2023/03/29 05:56:17;;;;;;;1.40;1.10;;;;;;;7.81;80.17;98259.94;5072662;28;20258;-78
2023/03/29 05:58:45;;;;;;;1.27;1.17;;;;;;;7.86;79.76;98252.22;5073097;28;20201;-79
2023/03/29 06:01:13;;;;;;;3.33;1.20;;;;;;;7.85;80.21;98256.72;5072606;28;20209;-76
2023/03/29 06:03:40;;;;;;;1.40;1.07;;;;;;;7.93;78.68;98258.38;5072700;28;20224;-77
2023/03/29 06:06:08;;;;;;;2.13;1.30;;;;;;;7.93;79.22;98253.06;5072462;28;20220;-77
2023/03/29 06:08:34;;;;;;;6.70;3.30;;;;;;;7.87;81.43;98253.88;5072753;28;20211;-79
2023/03/29 06:11:03;;;;;;;3.80;1.30;;;;;;;7.94;80.28;98260.00;5072908;28;20659;-78
2023/03/29 06:13:30;;;;;;;2.70;1.10;;;;;;;7.89;81.59;98262.41;5072483;28;20627;-77
2023/03/29 06:15:57;;;;;;;2.10;1.20;;;;;;;7.91;79.91;98260.38;5072658;28;20200;-78
2023/03/29 06:18:23;;;;;;;2.53;1.30;;;;;;;7.96;79.65;98268.56;5072413;28;20208;-77
2023/03/29 06:20:51;;;;;;;1.53;1.20;;;;;;;7.98;79.94;98267.34;5072533;28;20204;-77
2023/03/29 06:23:18;;;;;;;2.97;1.40;;;;;;;7.95;82.60;98270.38;5073092;28;20224;-78
2023/03/29 06:25:45;;;;;;;3.43;1.30;;;;;;;8.00;81.25;98273.25;5072638;28;20212;-77
2023/03/29 06:28:13;;;;;;;4.60;1.43;;;;;;;8.02;81.40;98265.13;5075150;28;20212;-77
2023/03/29 06:30:40;;;;;;;1.77;1.30;;;;;;;8.10;80.14;98264.97;5075921;28;20200;-77
2023/03/29 06:33:08;;;;;;;5.60;1.43;;;;;;;8.16;80.09;98272.09;5076381;28;20239;-77
2023/03/29 06:35:35;;;;;;;3.50;1.17;;;;;;;8.34;76.62;98278.53;5076847;28;20215;-77
2023/03/29 06:38:03;;;;;;;2.70;1.10;;;;;;;8.55;74.09;98283.66;5077300;28;20580;-77
2023/03/29 06:40:30;;;;;;;4.10;1.60;;;;;;;8.64;77.38;98276.34;5077014;28;20211;-77
2023/03/29 06:42:58;;;;;;;4.23;1.53;;;;;;;8.67;77.68;98281.22;5077018;28;20220;-77
2023/03/29 06:45:26;;;;;;;2.50;1.27;;;;;;;8.80;73.71;98275.97;5076701;28;20209;-78
2023/03/29 06:47:52;;;;;;;3.77;1.20;;;;;;;8.89;75.10;98264.97;5076790;28;20231;-77
2023/03/29 06:50:19;;;;;;;1.30;1.20;;;;;;;9.08;71.47;98273.94;5076756;28;20204;-76
2023/03/29 06:52:46;;;;;;;6.00;1.57;;;;;;;9.10;71.05;98283.31;5076714;28;20591;-77
2023/03/29 06:55:14;;;;;;;3.10;1.33;;;;;;;9.28;71.72;98290.69;5076335;28;20212;-77
2023/03/29 06:57:41;;;;;;;3.17;1.43;;;;;;;9.28;70.70;98288.81;5076279;28;20300;-77
2023/03/29 07:00:15;;;;;;;4.10;1.43;;;;;;;9.43;70.00;98294.75;5076095;28;20679;-76
2023/03/29 07:02:41;;;;;;;5.90;1.50;;;;;;;9.31;73.01;98306.16;5076337;28;20691;-77
2023/03/29 07:05:10;;;;;;;3.53;1.80;;;;;;;9.22;73.15;98304.72;5076112;28;20205;-77
2023/03/29 07:07:52;;;;;;;8.97;1.40;;;;;;;9.26;73.23;98304.13;5075893;28;20687;-76
2023/03/29 07:10:37;;;;;;;4.87;1.73;;;;;;;9.11;78.02;98313.31;5076810;28;20189;-76
2023/03/29 07:13:04;;;;;;;2.67;1.37;;;;;;;9.16;76.03;98309.03;5075915;28;20228;-76
2023/03/29 07:15:32;;;;;;;3.80;1.20;;;;;;;9.17;75.52;98304.53;5076226;28;20205;-76
2023/03/29 07:18:00;;;;;;;3.73;1.60;;;;;;;9.36;74.48;98309.84;5076026;28;20197;-76
2023/03/29 07:20:27;;;;;;;5.57;1.60;;;;;;;9.33;75.12;98304.13;5076166;28;20200;-76
2023/03/29 07:22:53;;;;;;;5.40;1.50;;;;;;;9.30;75.96;98315.16;5076463;28;20224;-76
2023/03/29 07:25:22;;;;;;;3.20;1.50;;;;;;;9.33;77.55;98307.59;5076105;28;20204;-76
2023/03/29 07:27:49;;;;;;;3.43;1.60;;;;;;;9.41;77.29;98318.00;5075651;28;20232;-73
2023/03/29 07:30:20;;;;;;;3.30;1.50;;;;;;;9.52;76.74;98316.56;5075796;28;20215;-73
2023/03/29 07:32:46;;;;;;;5.87;1.73;;;;;;;9.62;78.69;98309.00;5075883;28;20294;-75
2023/03/29 07:35:16;;;;;;;1.87;1.30;;;;;;;9.59;78.09;98317.41;5075921;28;20215;-76
2023/03/29 07:37:43;;;;;;;2.70;1.20;;;;;;;9.65;75.54;98316.56;5075600;28;20208;-76
2023/03/29 07:40:14;;;;;;;3.20;1.50;;;;;;;9.72;73.90;98314.69;5074652;28;20243;-76
2023/03/29 07:42:51;;;;;;;3.27;1.33;;;;;;;9.76;75.32;98321.22;5075419;28;20224;-76
2023/03/29 07:45:19;;;;;;;1.83;1.37;;;;;;;9.77;76.99;98325.53;5075634;28;20199;-77
2023/03/29 07:47:46;;;;;;;3.23;1.40;;;;;;;9.87;75.59;98328.56;5075436;28;20224;-77
2023/03/29 07:50:13;;;;;;;6.10;1.30;;;;;;;9.99;75.12;98330.38;5075957;28;20201;-77
2023/03/29 07:52:40;;;;;;;4.03;1.53;;;;;;;10.14;74.56;98338.13;5075597;28;20232;-77
2023/03/29 07:55:09;;;;;;;4.67;2.30;;;;;;;10.06;73.76;98328.56;5075636;28;20213;-77
2023/03/29 07:57:35;;;;;;;4.80;2.73;;;;;;;10.12;72.19;98332.19;5075488;28;20196;-77
2023/03/29 08:00:13;;;;;;;5.43;3.20;;;;;;;10.27;72.03;98332.78;5075398;28;20256;-77
2023/03/29 08:02:40;;;;;;;4.57;2.70;;;;;;;10.17;75.66;98337.69;5075473;28;20229;-78
2023/03/29 08:05:06;;;;;;;5.00;2.07;;;;;;;10.35;73.80;98332.53;5075239;28;20207;-78
2023/03/29 08:07:33;;;;;;;10.70;2.37;;;;;;;10.48;73.07;98333.31;5075364;28;20224;-78
2023/03/29 08:09:59;;;;;;;5.80;2.13;;;;;;;10.52;73.20;98331.84;5075109;28;20668;-78
2023/03/29 08:12:26;;;;;;;7.27;2.23;;;;;;;11.08;70.19;98321.28;5075070;28;20711;-78
2023/03/29 08:14:52;;;;;;;5.63;2.07;;;;;;;11.10;70.17;98322.69;5075205;28;20230;-78
2023/03/29 08:17:18;;;;;;;4.70;2.00;;;;;;;11.01;71.47;98317.84;5075340;28;20209;-78
2023/03/29 08:19:45;;;;;;;7.30;2.20;;;;;;;10.99;71.71;98322.56;5075231;28;20208;-77
2023/03/29 08:22:11;;;;;;;5.50;2.07;;;;;;;10.86;70.90;98328.00;5074725;28;20707;-78
2023/03/29 08:24:38;;;;;;;5.67;1.97;;;;;;;10.89;70.43;98315.06;5075015;28;20545;-78
2023/03/29 08:27:04;;;;;;;8.00;2.03;;;;;;;10.88;74.30;98318.78;5075698;28;20230;-78
2023/03/29 08:29:31;;;;;;;5.30;2.23;;;;;;;10.82;71.56;98321.47;5075080;28;20307;-78
2023/03/29 08:31:58;;;;;;;8.77;2.20;;;;;;;10.80;72.66;98323.50;5074793;28;20250;-79
2023/03/29 08:34:24;;;;;;;4.63;1.80;;;;;;;10.84;71.50;98319.41;5074936;28;20202;-79
2023/03/29 08:36:51;;;;;;;4.23;2.00;;;;;;;10.82;72.86;98316.94;5074741;28;20202;-78
2023/03/29 08:39:18;;;;;;;5.37;1.90;;;;;;;10.88;71.55;98324.09;5074801;28;20215;-79
2023/03/29 08:42:21;;;;;;;4.90;2.00;;;;;;;10.86;72.59;98322.69;5074552;28;20271;-78
2023/03/29 08:45:20;;;;;;;4.57;2.10;;;;;;;10.90;69.43;98313.22;5074522;28;20204;-79
2023/03/29 08:47:58;;;;;;;5.40;2.17;;;;;;;10.95;69.85;98314.22;5069774;28;20225;-78
2023/03/29 08:50:36;;;;;;;4.50;1.90;;;;;;;10.80;71.36;98332.31;5074402;28;20658;-77
2023/03/29 08:53:15;;;;;;;2.60;1.67;;;;;;;10.78;72.50;98322.91;5074829;28;20231;-79
2023/03/29 08:55:45;;;;;;;5.07;1.87;;;;;;;10.76;72.32;98316.97;5057116;28;20636;-78
2023/03/29 08:58:16;;;;;;;6.47;1.97;;;;;;;10.85;72.14;98316.53;5074280;28;20203;-78
2023/03/29 09:00:57;;;;;;;6.03;1.97;;;;;;;11.08;69.60;98313.28;5074274;28;20198;-78
2023/03/29 09:03:37;;;;;;;2.90;1.70;;;;;;;11.24;68.73;98307.47;5056408;28;20241;-78
2023/03/29 09:06:07;;;;;;;2.33;1.67;;;;;;;11.28;69.51;98306.00;5074021;28;20200;-78
2023/03/29 09:08:54;;;;;;;3.63;1.40;;;;;;;11.34;70.01;98312.31;5074194;28;20238;-78
2023/03/29 09:11:23;;;;;;;2.43;1.40;;;;;;;11.42;67.74;98312.84;5074270;28;20201;-78
2023/03/29 09:14:18;;;;;;;3.67;1.50;;;;;;;11.53;67.28;98309.44;5073430;28;20280;-78
2023/03/29 09:16:56;;;;;;;2.93;1.60;;;;;;;11.64;69.95;98300.78;5073969;28;20268;-77
2023/03/29 09:19:33;;;;;;;4.50;1.50;;;;;;;12.00;65.41;98305.34;5056982;28;20187;-77
2023/03/29 09:22:35;;;;;;;4.53;1.30;;;;;;;12.25;64.99;98306.09;5073763;28;20199;-77
2023/03/29 09:25:11;;;;;;;2.43;1.40;;;;;;;12.26;66.07;98310.38;5063181;28;20211;-77
2023/03/29 09:28:05;;;;;;;2.17;1.33;;;;;;;12.42;65.18;98305.25;5073875;28;20231;-77
2023/03/29 09:30:40;;;;;;;3.13;1.20;;;;;;;12.35;63.79;98299.16;5071536;28;20257;-77
2023/03/29 09:33:25;;;;;;;4.33;1.40;;;;;;;12.43;64.98;98306.88;5056535;28;20236;-78
2023/03/29 09:36:04;;;;;;;2.97;1.30;;;;;;;12.76;61.65;98296.59;5073806;28;20629;-78
2023/03/29 09:38:31;;;;;;;2.77;1.30;;;;;;;12.39;62.04;98291.56;5073375;28;20651;-77
2023/03/29 09:41:21;;;;;;;3.73;1.80;;;;;;;12.85;61.88;98281.06;5073672;28;20304;-77
2023/03/29 09:43:50;;;;;;;1.47;1.30;;;;;;;12.85;62.78;98286.41;5073219;28;20228;-77
2023/03/29 09:46:28;;;;;;;3.03;1.40;;;;;;;12.94;60.57;98283.16;5073312;28;20204;-77
2023/03/29 09:48:56;;;;;;;2.47;1.33;;;;;;;12.87;62.02;98273.63;5073432;28;20193;-78
2023/03/29 09:51:26;;;;;;;3.20;1.43;;;;;;;12.97;59.83;98277.41;5073363;28;20239;-77
2023/03/29 09:53:55;;;;;;;2.37;1.23;;;;;;;13.10;58.75;98269.19;5073209;28;20729;-78
2023/03/29 09:56:22;;;;;;;1.40;1.20;;;;;;;13.33;60.08;98269.22;5073603;28;20204;-78
2023/03/29 09:58:49;;;;;;;3.57;1.23;;;;;;;13.36;57.54;98271.44;5073471;28;20204;-77
2023/03/29 10:01:17;;;;;;;1.37;1.27;;;;;;;13.54;58.60;98276.69;5073351;28;20201;-77
2023/03/29 10:03:52;;;;;;;2.43;1.43;;;;;;;13.83;55.39;98274.94;5072286;28;20318;-77
2023/03/29 10:06:22;;;;;;;1.50;1.20;;;;;;;13.94;55.28;98284.78;5073310;28;20188;-78
2023/03/29 10:08:57;;;;;;;3.57;1.33;;;;;;;14.22;54.34;98280.34;5072592;28;20208;-78
2023/03/29 10:11:35;;;;;;;3.23;1.30;;;;;;;14.06;53.97;98273.03;5056284;28;20214;-77
2023/03/29 10:14:34;;;;;;;1.30;1.20;;;;;;;14.10;53.63;98265.34;5072968;28;20315;-78
2023/03/29 10:17:00;;;;;;;2.80;1.53;;;;;;;14.07;53.87;98269.28;5068292;28;20200;-77
2023/03/29 10:19:33;;;;;;;2.67;1.53;;;;;;;14.51;52.59;98262.47;5073210;28;20211;-76
2023/03/29 10:22:05;;;;;;;2.43;1.70;;;;;;;14.23;51.89;98268.59;5073246;28;20224;-77
2023/03/29 10:24:31;;;;;;;2.93;1.43;;;;;;;14.30;52.73;98269.25;5073765;28;20552;-77
2023/03/29 10:27:02;;;;;;;3.83;1.70;;;;;;;13.92;54.08;98263.63;5072624;28;20228;-77
2023/03/29 10:29:36;;;;;;;3.27;1.67;;;;;;;14.00;51.89;98270.47;5072791;28;20185;-77
2023/03/29 10:32:02;;;;;;;3.17;1.70;;;;;;;14.43;50.23;98258.28;5072880;28;20192;-77
2023/03/29 10:34:29;;;;;;;2.27;1.30;;;;;;;14.05;51.65;98262.56;5073116;28;20196;-77
2023/03/29 10:36:59;;;;;;;1.47;1.17;;;;;;;14.53;51.88;98255.84;5055461;28;20203;-77
2023/03/29 10:39:30;;;;;;;4.13;1.60;;;;;;;14.33;54.61;98247.41;5072834;28;20200;-76
2023/03/29 10:41:59;;;;;;;3.93;1.40;;;;;;;14.45;50.94;98248.19;5073440;28;20205;-76
2023/03/29 10:44:34;;;;;;;2.07;1.40;;;;;;;14.66;50.38;98247.50;5072372;28;20208;-77
2023/03/29 10:47:19;;;;;;;2.47;1.30;;;;;;;14.61;51.70;98239.38;5072984;28;20224;-77
2023/03/29 10:49:54;;;;;;;1.90;1.37;;;;;;;15.06;51.63;98228.66;5073562;28;20189;-76
2023/03/29 10:52:21;;;;;;;2.60;1.37;;;;;;;14.89;50.73;98215.28;5072561;28;20308;-76
2023/03/29 10:54:50;;;;;;;1.57;1.20;;;;;;;15.18;50.30;98221.34;5072643;28;20200;-76
2023/03/29 10:57:38;;;;;;;1.77;1.17;;;;;;;15.24;50.43;98220.41;5072347;28;20201;-76
2023/03/29 11:00:28;;;;;;;1.40;1.10;;;;;;;15.46;49.88;98227.47;5072161;28;20193;-77
2023/03/29 11:03:06;;;;;;;3.20;1.40;;;;;;;14.99;48.90;98226.16;5072301;28;20228;-77
2023/03/29 11:05:52;;;;;;;2.43;1.10;;;;;;;15.32;49.93;98219.97;5072356;28;20656;-77
2023/03/29 11:08:46;;;;;;;2.37;1.10;;;;;;;15.45;48.43;98212.44;5072328;28;20205;-77
2023/03/29 11:11:36;;;;;;;3.67;1.23;;;;;;;15.51;49.23;98210.66;5072438;28;20563;-77
2023/03/29 11:14:41;;;;;;;4.80;1.50;;;;;;;15.57;51.80;98207.81;5072583;28;20327;-76
2023/03/29 11:17:16;;;;;;;2.97;1.30;;;;;;;15.13;50.38;98207.88;5075307;28;20678;-77
2023/03/29 11:19:55;;;;;;;1.27;1.17;;;;;;;15.04;49.26;98204.00;5076010;28;20189;-76
2023/03/29 11:22:50;;;;;;;3.07;1.27;;;;;;;14.74;50.26;98198.94;5059398;28;20575;-76
2023/03/29 11:25:50;;;;;;;1.80;1.23;;;;;;;14.88;49.54;98191.44;5076569;28;20541;-76
2023/03/29 11:28:31;;;;;;;4.00;1.40;;;;;;;15.29;50.23;98185.66;5076188;28;20236;-76
2023/03/29 11:31:19;;;;;;;2.67;1.43;;;;;;;15.27;48.87;98193.09;5076059;28;20189;-77
2023/03/29 11:34:02;;;;;;;2.43;1.37;;;;;;;15.41;48.70;98186.38;5075732;28;20327;-76
2023/03/29 11:36:37;;;;;;;4.87;1.63;;;;;;;15.33;49.75;98186.78;5075798;28;20215;-76
2023/03/29 11:39:23;;;;;;;2.30;1.40;;;;;;;15.64;49.18;98188.84;5075729;28;20682;-76
2023/03/29 11:41:54;;;;;;;1.90;1.40;;;;;;;15.84;48.67;98181.09;5075268;28;20701;-76
2023/03/29 11:44:24;;;;;;;2.57;1.30;;;;;;;16.02;51.09;98178.88;5058079;28;20188;-76
2023/03/29 11:47:00;;;;;;;3.97;1.30;;;;;;;16.00;49.25;98194.44;5075889;28;20253;-76
2023/03/29 11:49:32;;;;;;;4.00;1.70;;;;;;;15.76;48.67;98190.38;5075770;28;20291;-77
2023/03/29 11:52:27;;;;;;;3.07;1.30;;;;;;;15.70;49.54;98177.94;5075444;28;20640;-76
2023/03/29 11:55:02;;;;;;;1.57;1.43;;;;;;;15.51;50.10;98175.81;5060453;28;20558;-77
2023/03/29 11:57:37;;;;;;;1.63;1.40;;;;;;;15.55;50.03;98172.38;5075517;28;20187;-76